Time;durP1;ratioP1;P1;durP2;ratioP2;P2;SDS_P1;SDS_P2;PMS_P1;PMS_P2;Temp;Humidity;BMP_temperature;BMP_pressure;BME280_temperature;BME280_humidity;BME280_pressure;Samples;Min_cycle;Max_cycle;Signal;HPM_P1;HPM_P2
2024/04/23 00:02:05;;;;;;;;;;;;;;;9.76;39.67;101305.09;5249523;26;120220;-72
2024/04/23 00:04:31;;;;;;;;;;;;;;;9.74;39.74;101305.31;5256342;26;116589;-73
2024/04/23 00:06:58;;;;;;;;;;;;;;;9.72;39.42;101294.00;5203351;26;94520;-73
2024/04/23 00:09:24;;;;;;;;;;;;;;;9.71;39.59;101288.88;5258974;26;96374;-72
2024/04/23 00:11:50;;;;;;;;;;;;;;;9.69;39.39;101289.09;5223834;26;108624;-72
2024/04/23 00:14:16;;;;;;;;;;;;;;;9.69;39.65;101293.66;5223596;26;94315;-72
2024/04/23 00:16:42;;;;;;;;;;;;;;;9.67;39.65;101287.69;5195665;26;116387;-72
2024/04/23 00:19:08;;;;;;;;;;;;;;;9.66;39.42;101291.44;5203156;26;95662;-72
2024/04/23 00:21:34;;;;;;;;;;;;;;;9.64;39.58;101296.28;5219525;26;94373;-72
2024/04/23 00:24:00;;;;;;;;;;;;;;;9.62;39.63;101284.91;5247519;26;94150;-72
2024/04/23 00:26:26;;;;;;;;;;;;;;;9.61;39.79;101281.41;5227576;26;118195;-73
2024/04/23 00:28:52;;;;;;;;;;;;;;;9.66;39.76;101286.06;5251300;26;106281;-72
2024/04/23 00:31:18;;;;;;;;;;;;;;;9.71;39.59;101286.19;5272540;26;94819;-71
2024/04/23 00:33:44;;;;;;;;;;;;;;;9.76;39.82;101288.94;5253678;26;95974;-72
2024/04/23 00:36:10;;;;;;;;;;;;;;;9.79;39.71;101272.31;5249580;26;100891;-72
2024/04/23 00:38:36;;;;;;;;;;;;;;;9.82;39.73;101279.88;5231712;26;111012;-72
2024/04/23 00:41:02;;;;;;;;;;;;;;;9.83;39.78;101271.59;5227985;26;95500;-72
2024/04/23 00:43:28;;;;;;;;;;;;;;;9.85;39.43;101276.72;5201787;26;95154;-72
2024/04/23 00:45:56;;;;;;;;;;;;;;;9.86;39.58;101274.84;5193986;26;114665;-72
2024/04/23 00:48:22;;;;;;;;;;;;;;;9.86;39.73;101278.34;5255976;26;96241;-72
2024/04/23 00:50:48;;;;;;;;;;;;;;;9.86;39.67;101267.56;5257438;26;118255;-72
2024/04/23 00:53:14;;;;;;;;;;;;;;;9.83;39.78;101271.59;5274516;26;94282;-72
2024/04/23 00:55:40;;;;;;;;;;;;;;;9.83;39.60;101276.97;5248142;26;114732;-72
2024/04/23 00:58:06;;;;;;;;;;;;;;;9.82;39.66;101271.81;5231593;26;94693;-72
2024/04/23 01:00:32;;;;;;;;;;;;;;;9.81;39.63;101275.56;5255270;26;105441;-72
2024/04/23 01:02:58;;;;;;;;;;;;;;;9.80;39.67;101277.44;5221756;26;108140;-72
2024/04/23 01:05:24;;;;;;;;;;;;;;;9.78;39.95;101278.75;5243356;26;106006;-72
2024/04/23 01:07:50;;;;;;;;;;;;;;;9.77;39.74;101275.22;5192586;26;108590;-71
2024/04/23 01:10:16;;;;;;;;;;;;;;;9.76;39.82;101262.03;5202044;26;125538;-72
2024/04/23 01:12:42;;;;;;;;;;;;;;;9.74;39.63;101266.81;5251519;26;124223;-72
2024/04/23 01:15:08;;;;;;;;;;;;;;;9.72;39.64;101263.56;5251713;26;95398;-73
2024/04/23 01:17:38;;;;;;;;;;;;;;;9.70;39.60;101273.75;5221977;26;95040;-72
2024/04/23 01:20:05;;;;;;;;;;;;;;;9.69;39.75;101274.81;5247225;26;94517;-71
2024/04/23 01:22:51;;;;;;;;;;;;;;;9.66;39.74;101270.72;5256689;26;96848;-72
2024/04/23 01:25:20;;;;;;;;;;;;;;;9.64;39.74;101274.72;5245939;26;94515;-72
2024/04/23 01:27:46;;;;;;;;;;;;;;;9.62;39.82;101271.44;5200025;26;95077;-72
2024/04/23 01:30:12;;;;;;;;;;;;;;;9.60;39.83;101274.41;5244679;26;94551;-73
2024/04/23 01:32:41;;;;;;;;;;;;;;;9.58;39.81;101273.81;5198654;26;94864;-72
2024/04/23 01:35:07;;;;;;;;;;;;;;;9.56;39.95;101278.63;5220919;26;116566;-71
2024/04/23 01:37:33;;;;;;;;;;;;;;;9.55;39.65;101274.31;5231363;26;98943;-72
2024/04/23 01:39:59;;;;;;;;;;;;;;;9.53;39.77;101276.41;5248995;26;102157;-72
2024/04/23 01:42:25;;;;;;;;;;;;;;;9.51;39.66;101265.91;5218845;26;98147;-72
2024/04/23 01:44:51;;;;;;;;;;;;;;;9.49;39.93;101277.94;5251367;26;94693;-72
2024/04/23 01:47:17;;;;;;;;;;;;;;;9.47;39.62;101267.44;5199931;26;124280;-71
2024/04/23 01:49:43;;;;;;;;;;;;;;;9.44;39.81;101270.59;5248548;26;95713;-72
2024/04/23 01:52:09;;;;;;;;;;;;;;;9.43;39.70;101268.97;5220313;26;112955;-72
2024/04/23 01:54:35;;;;;;;;;;;;;;;9.42;39.64;101267.31;5213925;26;114848;-72
2024/04/23 01:57:03;;;;;;;;;;;;;;;9.41;39.68;101268.38;5217721;26;123045;-72
2024/04/23 01:59:29;;;;;;;;;;;;;;;9.40;39.87;101260.56;5250317;26;94335;-72
2024/04/23 02:01:55;;;;;;;;;;;;;;;9.37;39.82;101256.47;5246404;26;95742;-72
2024/04/23 02:04:22;;;;;;;;;;;;;;;9.36;39.68;101260.22;5260471;26;96353;-73
2024/04/23 02:06:48;;;;;;;;;;;;;;;9.36;39.84;101257.53;5259458;26;94795;-73
2024/04/23 02:09:14;;;;;;;;;;;;;;;9.33;39.78;101256.13;5198690;26;106835;-73
2024/04/23 02:11:46;;;;;;;;;;;;;;;9.33;39.77;101253.44;5273798;26;94482;-72
2024/04/23 02:14:12;;;;;;;;;;;;;;;9.31;39.74;101252.88;5231466;26;114413;-72
2024/04/23 02:16:38;;;;;;;;;;;;;;;9.31;39.77;101246.66;5256245;26;126381;-72
2024/04/23 02:19:04;;;;;;;;;;;;;;;9.28;39.86;101237.19;5257534;26;95774;-72
2024/04/23 02:21:30;;;;;;;;;;;;;;;9.28;39.68;101244.47;5227158;26;94618;-71
2024/04/23 02:23:56;;;;;;;;;;;;;;;9.26;40.02;101244.69;5254517;26;95132;-72
2024/04/23 02:26:22;;;;;;;;;;;;;;;9.24;39.78;101246.81;5251926;26;112063;-72
2024/04/23 02:28:48;;;;;;;;;;;;;;;9.23;39.79;101247.84;5202857;26;125564;-72
2024/04/23 02:31:14;;;;;;;;;;;;;;;9.22;39.63;101240.03;5219505;26;94440;-73
2024/04/23 02:33:40;;;;;;;;;;;;;;;9.21;39.65;101233.84;5251725;26;94569;-73
2024/04/23 02:36:06;;;;;;;;;;;;;;;9.19;39.74;101243.19;5251820;26;124326;-73
2024/04/23 02:38:32;;;;;;;;;;;;;;;9.18;39.79;101237.00;5229642;26;101105;-72
2024/04/23 02:40:58;;;;;;;;;;;;;;;9.17;39.79;101237.25;5247273;26;96136;-71
2024/04/23 02:43:24;;;;;;;;;;;;;;;9.15;39.65;101245.53;5271122;26;94125;-71
2024/04/23 02:45:51;;;;;;;;;;;;;;;9.12;39.70;101229.06;5245667;26;94346;-73
2024/04/23 02:48:17;;;;;;;;;;;;;;;9.13;39.79;101236.09;5246654;26;96063;-71
2024/04/23 02:50:43;;;;;;;;;;;;;;;9.11;39.76;101233.63;5199525;26;94408;-72
2024/04/23 02:53:09;;;;;;;;;;;;;;;9.07;40.01;101232.47;5218440;26;114680;-71
2024/04/23 02:55:35;;;;;;;;;;;;;;;9.07;39.78;101235.16;5259679;26;94681;-73
2024/04/23 02:58:01;;;;;;;;;;;;;;;9.05;39.78;101231.91;5248462;26;105048;-71
2024/04/23 03:00:27;;;;;;;;;;;;;;;9.03;39.80;101232.13;5230298;26;94398;-73
2024/04/23 03:02:53;;;;;;;;;;;;;;;9.01;39.73;101228.88;5199610;26;94106;-72
2024/04/23 03:05:19;;;;;;;;;;;;;;;9.00;39.77;101227.25;5203870;26;108367;-73
2024/04/23 03:07:45;;;;;;;;;;;;;;;8.98;39.70;101229.34;5279836;26;94757;-72
2024/04/23 03:10:11;;;;;;;;;;;;;;;8.97;39.76;101226.91;5247982;26;124743;-71
2024/04/23 03:12:37;;;;;;;;;;;;;;;8.96;39.84;101231.47;5231097;26;95169;-71
2024/04/23 03:15:03;;;;;;;;;;;;;;;8.94;39.87;101227.38;5222884;26;123866;-72
2024/04/23 03:17:29;;;;;;;;;;;;;;;8.92;39.78;101233.00;5230609;26;115402;-72
2024/04/23 03:19:55;;;;;;;;;;;;;;;8.91;39.47;101228.66;5274413;26;124728;-71
2024/04/23 03:22:21;;;;;;;;;;;;;;;8.89;39.75;101229.97;5249697;26;94655;-72
2024/04/23 03:24:47;;;;;;;;;;;;;;;8.88;39.83;101229.13;5256605;26;94995;-72
2024/04/23 03:27:13;;;;;;;;;;;;;;;8.85;39.69;101227.75;5252197;26;102977;-71
2024/04/23 03:29:39;;;;;;;;;;;;;;;8.85;39.77;101229.63;5230859;26;102850;-71
2024/04/23 03:32:05;;;;;;;;;;;;;;;8.83;39.84;101219.09;5254226;26;96890;-72
2024/04/23 03:34:31;;;;;;;;;;;;;;;8.81;39.74;101220.41;5271561;26;94776;-71
2024/04/23 03:36:58;;;;;;;;;;;;;;;8.79;39.73;101219.78;5258020;26;95834;-71
2024/04/23 03:39:24;;;;;;;;;;;;;;;8.77;39.75;101225.44;5193806;26;95049;-72
2024/04/23 03:41:57;;;;;;;;;;;;;;;8.76;39.77;101226.47;5256124;26;94455;-73
2024/04/23 03:44:26;;;;;;;;;;;;;;;8.75;39.62;101221.31;5247266;26;95208;-72
2024/04/23 03:46:53;;;;;;;;;;;;;;;8.74;39.77;101225.06;5188555;26;94594;-72
2024/04/23 03:49:19;;;;;;;;;;;;;;;8.72;39.62;101219.09;5248910;26;96875;-72
2024/04/23 03:51:45;;;;;;;;;;;;;;;8.71;39.92;101222.84;5271089;26;114812;-71
2024/04/23 03:54:10;;;;;;;;;;;;;;;8.71;39.67;101220.97;5251853;26;124075;-73
2024/04/23 03:56:36;;;;;;;;;;;;;;;8.70;39.64;101223.91;5217976;26;111340;-73
2024/04/23 03:59:03;;;;;;;;;;;;;;;8.70;39.68;101218.53;5229693;26;95532;-73
2024/04/23 04:01:29;;;;;;;;;;;;;;;8.69;39.70;101222.28;5222843;26;94599;-72
2024/04/23 04:06:39;;;;;;;;;;;;;;;8.68;39.75;101215.25;5272575;26;95245;-71
2024/04/23 04:09:05;;;;;;;;;;;;;;;8.70;39.67;101218.53;5273141;26;98609;-73
2024/04/23 04:11:36;;;;;;;;;;;;;;;8.69;39.67;101214.22;5213971;26;113873;-73
2024/04/23 04:14:02;;;;;;;;;;;;;;;8.69;39.64;101217.72;5231984;26;96518;-72
2024/04/23 04:16:28;;;;;;;;;;;;;;;8.70;39.80;101215.84;5224793;26;122244;-72
2024/04/23 04:18:54;;;;;;;;;;;;;;;8.69;39.64;101214.22;5242767;26;95800;-72
2024/04/23 04:21:20;;;;;;;;;;;;;;;8.70;39.67;101213.16;5220880;26;94978;-72
2024/04/23 04:23:46;;;;;;;;;;;;;;;8.70;39.62;101215.84;5244183;26;126308;-71
2024/04/23 04:26:14;;;;;;;;;;;;;;;8.72;39.75;101213.72;5196323;26;94727;-71
2024/04/23 04:28:42;;;;;;;;;;;;;;;8.72;39.89;101213.72;5193380;26;94954;-72
2024/04/23 04:31:08;;;;;;;;;;;;;;;8.74;39.65;101222.38;4277015;26;10000349;-73
2024/04/23 04:33:35;;;;;;;;;;;;;;;8.75;39.62;101216.75;5181411;26;95023;-72
2024/04/23 04:36:01;;;;;;;;;;;;;;;8.75;39.73;101211.38;5167269;26;94834;-72
2024/04/23 04:38:27;;;;;;;;;;;;;;;8.77;39.60;101216.53;5190406;26;94264;-71
2024/04/23 04:40:53;;;;;;;;;;;;;;;8.78;39.74;101213.59;5185160;26;94300;-73
2024/04/23 04:43:19;;;;;;;;;;;;;;;8.80;39.56;101214.19;5162081;26;110197;-73
2024/04/23 04:45:45;;;;;;;;;;;;;;;8.82;39.49;101204.00;5166919;26;113058;-73
2024/04/23 04:48:11;;;;;;;;;;;;;;;8.86;39.74;101207.03;5236594;26;124148;-73
2024/04/23 04:50:38;;;;;;;;;;;;;;;8.89;39.25;101206.56;5214756;26;123861;-72
2024/04/23 04:53:04;;;;;;;;;;;;;;;8.91;39.56;101200.94;5214711;26;94318;-71
2024/04/23 04:55:30;;;;;;;;;;;;;;;8.94;39.38;101201.28;5198202;26;95475;-71
2024/04/23 04:57:56;;;;;;;;;;;;;;;8.98;39.42;101198.94;5160869;26;94546;-73
2024/04/23 05:00:22;;;;;;;;;;;;;;;9.00;39.46;101202.19;5185267;26;95537;-71
2024/04/23 05:02:48;;;;;;;;;;;;;;;9.05;39.50;101202.31;5162947;26;94404;-73
2024/04/23 05:05:14;;;;;;;;;;;;;;;9.10;39.51;101202.41;5157300;26;99194;-73
2024/04/23 05:07:40;;;;;;;;;;;;;;;9.15;39.50;101197.13;5198809;26;105064;-71
2024/04/23 05:10:07;;;;;;;;;;;;;;;9.18;39.40;101195.84;5197970;26;96134;-73
2024/04/23 05:12:39;;;;;;;;;;;;;;;9.24;39.45;101194.88;5192636;26;122073;-72
2024/04/23 05:15:05;;;;;;;;;;;;;;;9.29;39.43;101193.09;5218496;26;94222;-72
2024/04/23 05:17:31;;;;;;;;;;;;;;;9.35;39.40;101196.69;5191182;26;94108;-72
2024/04/23 05:19:58;;;;;;;;;;;;;;;9.41;39.43;101197.59;5159456;26;126183;-71
2024/04/23 05:22:25;;;;;;;;;;;;;;;9.48;39.20;101192.91;5174896;26;94320;-71
2024/04/23 05:24:51;;;;;;;;;;;;;;;9.55;39.21;101196.25;5191387;26;94592;-72
2024/04/23 05:27:17;;;;;;;;;;;;;;;9.61;39.20;101184.50;5193053;26;98880;-72
2024/04/23 05:29:45;;;;;;;;;;;;;;;9.69;39.33;101191.34;5218783;26;126059;-71
2024/04/23 05:34:56;;;;;;;;;;;;;;;9.89;39.33;101191.69;5196269;26;94823;-72
2024/04/23 05:37:22;;;;;;;;;;;;;;;9.99;39.19;101199.13;5224786;26;95951;-71
2024/04/23 05:39:48;;;;;;;;;;;;;;;10.10;38.99;101195.53;5159302;26;111442;-71
2024/04/23 05:42:15;;;;;;;;;;;;;;;10.21;39.09;101199.97;5185510;26;121060;-71
2024/04/23 05:44:41;;;;;;;;;;;;;;;10.31;38.84;101194.78;5169013;26;94420;-72
2024/04/23 05:47:07;;;;;;;;;;;;;;;10.45;38.76;101194.41;5166842;26;94860;-72
2024/04/23 05:50:11;;;;;;;;;;;;;;;10.57;39.04;101197.81;5187289;26;95737;-71
2024/04/23 05:53:15;;;;;;;;;;;;;;;10.75;39.18;101200.22;5249961;26;94349;-71
2024/04/23 05:55:41;;;;;;;;;;;;;;;10.97;38.63;101192.13;5229089;26;94276;-71
2024/04/23 05:58:08;;;;;;;;;;;;;;;11.15;38.53;101185.56;5177733;26;94385;-72
2024/04/23 06:00:34;;;;;;;;;;;;;;;11.33;38.70;101189.81;5197139;26;94806;-71
2024/04/23 06:03:01;;;;;;;;;;;;;;;11.54;38.45;101194.34;5197626;26;94196;-71
2024/04/23 06:05:27;;;;;;;;;;;;;;;11.74;38.83;101195.59;5211471;26;94423;-72
2024/04/23 06:07:57;;;;;;;;;;;;;;;11.95;38.78;101193.91;5228745;26;94773;-72
2024/04/23 06:10:23;;;;;;;;;;;;;;;12.15;38.47;101194.06;5195560;26;95152;-72
2024/04/23 06:12:49;;;;;;;;;;;;;;;12.37;38.48;101182.28;5175995;26;94280;-72
2024/04/23 06:15:15;;;;;;;;;;;;;;;12.59;38.29;101180.25;5202968;26;94802;-72
2024/04/23 06:17:41;;;;;;;;;;;;;;;12.80;38.20;101177.63;5197591;26;123431;-72
2024/04/23 06:20:08;;;;;;;;;;;;;;;13.03;38.32;101177.16;5191214;26;118484;-72
2024/04/23 06:22:41;;;;;;;;;;;;;;;13.25;37.88;101185.91;5229579;26;94777;-71
2024/04/23 06:25:10;;;;;;;;;;;;;;;13.53;38.10;101191.09;5199592;26;94180;-72
2024/04/23 06:27:36;;;;;;;;;;;;;;;13.78;38.04;101182.97;5170064;26;95809;-72
2024/04/23 06:30:09;;;;;;;;;;;;;;;14.02;38.16;101175.09;5172535;26;104748;-72
2024/04/23 06:32:39;;;;;;;;;;;;;;;14.27;37.98;101174.25;5171112;26;94171;-71
2024/04/23 06:35:05;;;;;;;;;;;;;;;14.58;37.96;101183.16;5199320;26;95265;-71
2024/04/23 06:37:34;;;;;;;;;;;;;;;14.92;37.43;101180.56;5189614;26;95376;-72
2024/04/23 06:40:00;;;;;;;;;;;;;;;15.35;37.58;101175.41;5173413;26;94801;-72
2024/04/23 06:42:26;;;;;;;;;;;;;;;15.93;37.64;101166.56;5173325;26;95836;-73
2024/04/23 06:44:52;;;;;;;;;;;;;;;16.72;36.44;101164.34;5171014;26;94702;-71
2024/04/23 06:47:18;;;;;;;;;;;;;;;17.43;36.34;101148.94;5189430;26;95484;-72
2024/04/23 06:49:45;;;;;;;;;;;;;;;18.16;36.25;101144.72;5173975;26;107158;-73
2024/04/23 06:52:14;;;;;;;;;;;;;;;18.91;35.98;101148.16;5201786;26;96434;-72
2024/04/23 06:54:41;;;;;;;;;;;;;;;19.58;35.94;101137.28;5168733;26;94623;-72
2024/04/23 06:57:07;;;;;;;;;;;;;;;20.23;35.49;101150.34;5228321;26;95815;-70
2024/04/23 06:59:33;;;;;;;;;;;;;;;20.80;35.50;101136.69;5189997;26;103597;-73
2024/04/23 07:01:59;;;;;;;;;;;;;;;21.24;35.78;101137.53;5222254;26;106088;-71
2024/04/23 07:04:25;;;;;;;;;;;;;;;21.62;35.09;101142.38;5223333;26;97758;-72
2024/04/23 07:06:53;;;;;;;;;;;;;;;21.94;36.03;101141.00;5158339;26;115573;-72
2024/04/23 07:09:20;;;;;;;;;;;;;;;22.25;35.80;101139.94;5199337;26;94355;-73
2024/04/23 07:11:46;;;;;;;;;;;;;;;22.46;35.09;101140.78;5164048;26;110139;-72
2024/04/23 07:14:14;;;;;;;;;;;;;;;22.65;35.25;101145.06;5163834;26;107264;-72
2024/04/23 07:16:44;;;;;;;;;;;;;;;22.81;35.58;101143.34;5156545;26;96087;-72
2024/04/23 07:19:11;;;;;;;;;;;;;;;23.00;35.78;101145.66;5163197;26;94760;-72
2024/04/23 07:21:37;;;;;;;;;;;;;;;23.22;35.67;101133.50;5203121;26;96099;-72
2024/04/23 07:24:03;;;;;;;;;;;;;;;23.44;35.40;101133.16;5197610;26;107739;-72
2024/04/23 07:26:29;;;;;;;;;;;;;;;23.64;35.60;101125.19;5169605;26;95985;-72
2024/04/23 07:28:55;;;;;;;;;;;;;;;23.86;35.44;101127.56;5225568;26;108186;-71
2024/04/23 07:31:22;;;;;;;;;;;;;;;24.08;35.73;101125.53;5201350;26;93998;-72
2024/04/23 07:33:48;;;;;;;;;;;;;;;24.35;35.56;101121.28;5191789;26;94835;-72
2024/04/23 07:36:15;;;;;;;;;;;;;;;24.60;35.72;101122.09;5225250;26;95223;-72
2024/04/23 07:38:41;;;;;;;;;;;;;;;24.85;35.04;101118.16;5185615;26;95401;-72
2024/04/23 07:41:07;;;;;;;;;;;;;;;25.15;36.17;101109.56;5159528;26;94922;-72
2024/04/23 07:43:34;;;;;;;;;;;;;;;25.42;36.11;101116.22;5172257;26;114889;-72
2024/04/23 07:46:00;;;;;;;;;;;;;;;25.66;35.27;101109.78;5162580;26;94278;-72
2024/04/23 07:48:26;;;;;;;;;;;;;;;25.85;34.86;101106.34;5218395;26;95097;-72
2024/04/23 07:50:53;;;;;;;;;;;;;;;26.05;34.80;101101.72;5160725;26;94654;-72
2024/04/23 07:53:19;;;;;;;;;;;;;;;26.26;35.89;101102.25;5199339;26;101156;-72
2024/04/23 07:55:44;;;;;;;;;;;;;;;26.51;35.65;101100.09;5170006;26;125533;-72
2024/04/23 07:58:10;;;;;;;;;;;;;;;26.86;34.97;101096.50;5194282;26;124603;-73
2024/04/23 08:00:36;;;;;;;;;;;;;;;27.25;34.96;101091.81;5181114;26;126162;-72
2024/04/23 08:03:05;;;;;;;;;;;;;;;27.78;34.92;101094.75;5198781;26;95192;-73
2024/04/23 08:05:31;;;;;;;;;;;;;;;28.52;34.64;101086.03;5163068;26;94211;-73
2024/04/23 08:07:57;;;;;;;;;;;;;;;29.17;35.00;101092.47;5219407;26;94978;-72
2024/04/23 08:10:23;;;;;;;;;;;;;;;29.80;34.17;101092.31;5186797;26;94148;-72
2024/04/23 08:12:52;;;;;;;;;;;;;;;30.51;33.39;101080.16;5225349;26;95774;-73
2024/04/23 08:15:18;;;;;;;;;;;;;;;31.19;33.63;101081.25;5197743;26;94779;-70
2024/04/23 08:17:45;;;;;;;;;;;;;;;31.87;33.74;101081.38;5182723;26;95018;-71
2024/04/23 08:20:13;;;;;;;;;;;;;;;32.57;33.22;101081.69;5191707;26;96224;-73
2024/04/23 08:22:39;;;;;;;;;;;;;;;33.30;33.43;101077.41;5225554;26;95142;-70
2024/04/23 08:25:09;;;;;;;;;;;;;;;34.01;32.97;101071.31;5187734;26;125956;-71
2024/04/23 08:27:36;;;;;;;;;;;;;;;34.72;33.28;101074.56;5172227;26;94506;-71
2024/04/23 08:30:03;;;;;;;;;;;;;;;35.31;32.75;101063.78;5198184;26;94566;-71
2024/04/23 08:32:30;;;;;;;;;;;;;;;35.98;33.04;101068.75;5217887;26;94710;-71
2024/04/23 08:34:56;;;;;;;;;;;;;;;36.67;32.31;101061.41;5247193;26;96462;-71
2024/04/23 08:37:22;;;;;;;;;;;;;;;37.29;31.96;101062.44;5165614;26;123826;-71
2024/04/23 08:39:48;;;;;;;;;;;;;;;37.82;32.28;101066.00;5209696;26;94269;-73
2024/04/23 08:42:15;;;;;;;;;;;;;;;38.33;31.84;101045.81;5212020;26;94406;-71
2024/04/23 08:44:41;;;;;;;;;;;;;;;38.96;32.19;101056.41;5220404;26;126131;-71
2024/04/23 08:47:07;;;;;;;;;;;;;;;39.61;31.85;101043.88;5253709;26;94345;-70
2024/04/23 08:49:35;;;;;;;;;;;;;;;40.14;32.01;101046.91;5184731;26;123122;-72
2024/04/23 08:52:01;;;;;;;;;;;;;;;40.61;31.55;101033.94;5159027;26;94752;-73
2024/04/23 08:54:27;;;;;;;;;;;;;;;41.12;31.43;101030.75;5192817;26;126155;-71
2024/04/23 08:56:53;;;;;;;;;;;;;;;39.11;33.21;101022.97;5159340;26;94678;-69
2024/04/23 08:59:19;;;;;;;;;;;;;;;40.19;32.75;101025.78;5187601;26;110395;-71
2024/04/23 09:01:57;;;;;;;;;;;;;;;40.66;32.13;101020.00;5173347;26;94218;-71
2024/04/23 09:04:23;;;;;;;;;;;;;;;41.06;31.99;101012.81;5187995;26;94531;-71
2024/04/23 09:06:49;;;;;;;;;;;;;;;41.45;31.56;101016.88;5163593;26;94424;-71
2024/04/23 09:09:19;;;;;;;;;;;;;;;41.86;31.72;101006.25;5194943;26;94402;-72
2024/04/23 09:11:45;;;;;;;;;;;;;;;42.39;31.75;101003.84;5190842;26;95033;-72
2024/04/23 09:14:12;;;;;;;;;;;;;;;43.01;31.47;101005.34;5186913;26;98264;-72
2024/04/23 09:16:38;;;;;;;;;;;;;;;43.40;31.49;100991.28;5224095;26;94451;-72
2024/04/23 09:19:04;;;;;;;;;;;;;;;41.97;32.45;100995.22;5191314;26;94201;-72
2024/04/23 09:21:30;;;;;;;;;;;;;;;40.75;33.17;100978.91;5163939;26;95691;-72
2024/04/23 09:24:01;;;;;;;;;;;;;;;40.03;33.97;100969.53;5168815;26;95601;-72
2024/04/23 09:26:27;;;;;;;;;;;;;;;38.80;34.46;100955.16;5188313;26;96387;-72
2024/04/23 09:28:54;;;;;;;;;;;;;;;37.75;34.97;100967.78;5194456;26;121608;-71
2024/04/23 09:31:20;;;;;;;;;;;;;;;36.78;35.91;100960.88;5221840;26;94901;-71
2024/04/23 09:34:04;;;;;;;;;;;;;;;35.89;36.16;100957.91;5199175;26;96576;-72
2024/04/23 09:36:33;;;;;;;;;;;;;;;34.96;36.33;100955.06;5185998;26;96620;-72
2024/04/23 09:38:59;;;;;;;;;;;;;;;34.14;36.89;100948.53;5218725;26;94419;-70
2024/04/23 09:41:26;;;;;;;;;;;;;;;33.41;36.76;100947.66;5191758;26;94369;-72
2024/04/23 09:43:56;;;;;;;;;;;;;;;32.71;37.05;100949.72;5222318;26;96018;-70
2024/04/23 09:46:22;;;;;;;;;;;;;;;32.01;37.44;100952.38;5190556;26;95638;-71
2024/04/23 09:48:50;;;;;;;;;;;;;;;31.36;36.80;100942.50;5224484;26;94093;-71
2024/04/23 09:51:18;;;;;;;;;;;;;;;30.75;36.89;100937.63;5168862;26;94411;-69
2024/04/23 09:53:44;;;;;;;;;;;;;;;30.23;37.73;100936.25;5185461;26;94473;-69
2024/04/23 09:56:12;;;;;;;;;;;;;;;29.72;38.38;100935.13;5185807;26;96359;-70
2024/04/23 09:58:41;;;;;;;;;;;;;;;29.27;37.62;100939.13;5156732;26;94123;-71
2024/04/23 10:01:08;;;;;;;;;;;;;;;28.81;37.97;100940.25;5195742;26;94578;-70
2024/04/23 10:03:42;;;;;;;;;;;;;;;28.41;38.05;100929.88;5173893;26;94959;-71
2024/04/23 10:06:10;;;;;;;;;;;;;;;28.04;37.86;100941.66;5215832;26;94740;-71
2024/04/23 10:09:04;;;;;;;;;;;;;;;27.77;37.74;100929.78;5206685;26;94534;-71
2024/04/23 10:11:48;;;;;;;;;;;;;;;27.69;38.01;100927.28;5223922;26;94405;-71
2024/04/23 10:14:28;;;;;;;;;;;;;;;29.70;36.22;100914.47;5168728;26;94765;-70
2024/04/23 10:17:13;;;;;;;;;;;;;;;29.46;36.26;100916.66;5189352;26;94703;-70
2024/04/23 10:19:39;;;;;;;;;;;;;;;32.71;33.65;100914.25;5188116;26;94392;-71
2024/04/23 10:22:05;;;;;;;;;;;;;;;34.35;33.26;100911.94;5163298;26;95008;-71
2024/04/23 10:24:31;;;;;;;;;;;;;;;35.79;32.99;100910.47;5165184;26;94555;-70
2024/04/23 10:26:58;;;;;;;;;;;;;;;37.01;31.81;100914.28;5191424;26;95929;-71
2024/04/23 10:29:24;;;;;;;;;;;;;;;38.11;31.64;100906.94;5195198;26;94118;-71
2024/04/23 10:31:50;;;;;;;;;;;;;;;39.17;31.21;100910.47;5160776;26;95038;-71
2024/04/23 10:34:17;;;;;;;;;;;;;;;39.99;31.33;100899.13;5162726;26;94567;-71
2024/04/23 10:36:49;;;;;;;;;;;;;;;40.74;30.70;100901.88;5189254;26;95439;-71
2024/04/23 10:39:16;;;;;;;;;;;;;;;41.54;30.53;100897.31;5211792;26;94875;-70
2024/04/23 10:41:42;;;;;;;;;;;;;;;42.20;30.39;100891.09;5188523;26;98948;-71
2024/04/23 10:44:13;;;;;;;;;;;;;;;42.72;30.88;100881.31;5198640;26;95641;-72
2024/04/23 10:46:43;;;;;;;;;;;;;;;43.23;30.47;100873.91;5222690;26;94740;-71
2024/04/23 10:49:21;;;;;;;;;;;;;;;43.60;30.54;100875.19;5215756;26;94394;-72
2024/04/23 10:51:47;;;;;;;;;;;;;;;44.06;30.63;100863.38;5178997;26;94405;-71
2024/04/23 10:54:14;;;;;;;;;;;;;;;44.15;30.62;100858.88;5190017;26;94792;-71
2024/04/23 10:56:42;;;;;;;;;;;;;;;44.35;30.91;100847.59;5227286;26;94412;-72
2024/04/23 10:59:16;;;;;;;;;;;;;;;44.93;30.25;100850.72;5159836;26;96071;-71
2024/04/23 11:01:56;;;;;;;;;;;;;;;45.26;30.80;100842.59;5162802;26;99487;-72
2024/04/23 11:04:35;;;;;;;;;;;;;;;45.70;30.11;100840.72;5211261;26;95509;-72
2024/04/23 11:07:09;;;;;;;;;;;;;;;46.09;30.51;100831.75;5216438;26;99175;-71
2024/04/23 11:09:42;;;;;;;;;;;;;;;46.27;30.26;100822.84;5226608;26;94438;-71
2024/04/23 11:12:18;;;;;;;;;;;;;;;46.51;30.04;100828.94;5185303;26;98879;-72
2024/04/23 11:14:45;;;;;;;;;;;;;;;46.61;30.20;100823.06;5198483;26;94834;-72
2024/04/23 11:17:12;;;;;;;;;;;;;;;46.62;30.42;100819.72;5212310;26;96138;-72
2024/04/23 11:19:42;;;;;;;;;;;;;;;45.90;31.05;100809.34;5190323;26;94153;-72
2024/04/23 11:22:13;;;;;;;;;;;;;;;43.85;32.47;100791.53;5162585;26;94668;-72
2024/04/23 11:24:44;;;;;;;;;;;;;;;42.50;33.05;100802.28;5198617;26;94462;-71
2024/04/23 11:27:12;;;;;;;;;;;;;;;41.27;34.13;100787.84;5227591;26;94594;-72
2024/04/23 11:29:42;;;;;;;;;;;;;;;40.13;35.29;100782.16;5157846;26;94611;-71
2024/04/23 11:32:09;;;;;;;;;;;;;;;39.06;35.93;100775.59;5191795;26;94950;-71
2024/04/23 11:34:46;;;;;;;;;;;;;;;38.07;35.69;100772.03;5167515;26;94444;-72
2024/04/23 11:37:25;;;;;;;;;;;;;;;37.09;35.98;100770.41;5162768;26;94334;-72
2024/04/23 11:40:01;;;;;;;;;;;;;;;36.32;35.78;100773.94;5171649;26;108759;-71
2024/04/23 11:42:31;;;;;;;;;;;;;;;37.64;34.63;100770.50;5196114;26;94427;-71
2024/04/23 11:45:01;;;;;;;;;;;;;;;37.02;35.22;100762.19;5190128;26;94984;-71
2024/04/23 11:47:28;;;;;;;;;;;;;;;36.40;35.46;100761.31;5190884;26;94419;-70
2024/04/23 11:49:54;;;;;;;;;;;;;;;36.82;34.76;100751.03;5164429;26;95619;-71
2024/04/23 11:52:20;;;;;;;;;;;;;;;35.82;36.25;100752.63;5182992;26;94528;-70
2024/04/23 11:54:47;;;;;;;;;;;;;;;36.10;35.03;100748.41;5176208;26;94672;-70
2024/04/23 11:57:13;;;;;;;;;;;;;;;36.99;34.01;100751.06;5159941;26;95618;-70
2024/04/23 11:59:41;;;;;;;;;;;;;;;37.69;34.06;100757.91;5182575;26;94650;-71
2024/04/23 12:02:08;;;;;;;;;;;;;;;36.43;35.03;100751.22;5172968;26;94203;-71
2024/04/23 12:04:35;;;;;;;;;;;;;;;35.70;35.19;100745.66;5188265;26;94311;-72
2024/04/23 12:07:02;;;;;;;;;;;;;;;35.35;35.96;100744.38;5158943;26;94085;-71
2024/04/23 12:09:30;;;;;;;;;;;;;;;35.03;35.19;100734.59;5190626;26;95362;-71
2024/04/23 12:11:56;;;;;;;;;;;;;;;34.47;35.47;100736.31;5167721;26;94848;-70
2024/04/23 12:14:23;;;;;;;;;;;;;;;34.13;35.58;100732.47;5221943;26;106135;-70
2024/04/23 12:16:50;;;;;;;;;;;;;;;34.98;34.91;100734.25;5189662;26;94371;-71
2024/04/23 12:19:16;;;;;;;;;;;;;;;35.72;34.22;100729.19;5160188;26;95946;-71
2024/04/23 12:21:43;;;;;;;;;;;;;;;36.04;34.43;100730.50;5187019;26;109675;-71
2024/04/23 12:24:14;;;;;;;;;;;;;;;36.37;34.37;100722.91;5192050;26;105621;-71
2024/04/23 12:26:40;;;;;;;;;;;;;;;36.69;33.53;100718.53;5221097;26;94357;-71
2024/04/23 12:29:06;;;;;;;;;;;;;;;37.00;33.84;100707.69;5161165;26;95016;-71
2024/04/23 12:31:33;;;;;;;;;;;;;;;37.27;33.70;100708.13;5160007;26;94404;-70
2024/04/23 12:33:59;;;;;;;;;;;;;;;37.54;33.18;100704.94;5185246;26;94205;-71
2024/04/23 12:36:25;;;;;;;;;;;;;;;37.30;34.12;100693.19;5189677;26;94059;-71
2024/04/23 12:38:52;;;;;;;;;;;;;;;36.33;34.73;100689.34;5241402;26;94338;-71
2024/04/23 12:41:22;;;;;;;;;;;;;;;36.29;34.46;100683.03;5191372;26;94893;-71
2024/04/23 12:43:48;;;;;;;;;;;;;;;35.93;34.23;100676.69;5193363;26;94865;-71
2024/04/23 12:46:15;;;;;;;;;;;;;;;35.00;35.84;100679.44;5220822;26;99963;-71